createdAt,value
2022-08-17T00:00:43.800Z,5.25
2022-08-17T00:03:04.469Z,4.95
2022-08-17T00:05:08.072Z,4.40
2022-08-17T00:07:11.104Z,4.90
2022-08-17T00:09:18.463Z,5.70
2022-08-17T00:11:26.625Z,4.80
2022-08-17T00:13:33.693Z,5.38
2022-08-17T00:15:36.385Z,5.40
2022-08-17T00:17:40.038Z,5.88
2022-08-17T00:19:42.650Z,4.05
2022-08-17T00:21:56.321Z,4.93
2022-08-17T00:24:11.476Z,5.00
2022-08-17T00:26:14.720Z,5.68
2022-08-17T00:28:38.939Z,5.10
2022-08-17T00:30:51.068Z,5.47
2022-08-17T00:33:14.005Z,5.20
2022-08-17T00:35:23.387Z,4.95
2022-08-17T00:37:26.035Z,4.60
2022-08-17T00:39:28.814Z,4.95
2022-08-17T00:41:31.515Z,5.80
2022-08-17T00:43:36.292Z,4.60
2022-08-17T00:45:39.270Z,4.07
2022-08-17T00:47:42.511Z,5.50
2022-08-17T00:49:45.089Z,5.68
2022-08-17T00:51:59.031Z,5.10
2022-08-17T00:54:12.916Z,5.85
2022-08-17T00:56:21.321Z,5.68
2022-08-17T00:58:33.003Z,5.72
2022-08-17T01:00:43.051Z,6.50
2022-08-17T01:02:47.938Z,5.65
2022-08-17T01:04:53.096Z,6.68
2022-08-17T01:06:58.576Z,6.55
2022-08-17T01:09:03.619Z,6.00
2022-08-17T01:11:08.598Z,5.97
2022-08-17T01:13:13.059Z,6.93
2022-08-17T01:15:16.530Z,5.65
2022-08-17T01:17:19.461Z,6.78
2022-08-17T01:19:25.855Z,6.75
2022-08-17T01:21:41.818Z,6.40
2022-08-17T01:23:44.414Z,5.88
2022-08-17T01:25:51.032Z,5.72
2022-08-17T01:27:53.705Z,6.13
2022-08-17T01:30:01.914Z,5.72
2022-08-17T01:32:07.470Z,6.68
2022-08-17T01:34:13.927Z,6.97
2022-08-17T01:36:16.591Z,5.32
2022-08-17T01:38:26.500Z,5.00
2022-08-17T01:40:35.787Z,6.03
2022-08-17T01:42:45.265Z,5.40
2022-08-17T01:44:48.392Z,5.65
2022-08-17T01:46:51.169Z,5.38
2022-08-17T01:48:56.513Z,5.63
2022-08-17T01:50:59.375Z,5.38
2022-08-17T01:53:12.069Z,5.40
2022-08-17T01:55:17.866Z,4.80
2022-08-17T01:57:20.462Z,5.07
2022-08-17T01:59:23.249Z,5.30
2022-08-17T02:01:28.997Z,4.57
2022-08-17T02:03:32.295Z,4.30
2022-08-17T02:05:35.931Z,4.38
2022-08-17T02:07:47.966Z,4.57
2022-08-17T02:10:20.053Z,4.15
2022-08-17T02:12:38.154Z,5.38
2022-08-17T02:14:46.883Z,4.45
2022-08-17T02:16:49.757Z,4.85
2022-08-17T02:18:52.429Z,5.38
2022-08-17T02:20:55.101Z,5.43
2022-08-17T02:23:02.677Z,5.10
2022-08-17T02:25:09.502Z,5.03
2022-08-17T02:27:13.530Z,3.95
2022-08-17T02:29:16.166Z,4.43
2022-08-17T02:31:18.726Z,4.00
2022-08-17T02:33:21.924Z,3.80
2022-08-17T02:35:24.577Z,4.80
2022-08-17T02:37:28.868Z,3.72
2022-08-17T02:39:31.653Z,4.15
2022-08-17T02:41:34.823Z,4.38
2022-08-17T02:43:37.564Z,3.33
2022-08-17T02:45:40.303Z,4.25
2022-08-17T02:47:44.348Z,3.97
2022-08-17T02:49:54.184Z,4.18
2022-08-17T02:51:59.162Z,4.60
2022-08-17T02:54:38.941Z,4.22
2022-08-17T02:56:24.448Z,4.85
2022-08-17T02:58:35.750Z,3.60
2022-08-17T03:00:42.506Z,3.80
2022-08-17T03:02:46.049Z,4.40
2022-08-17T03:04:48.789Z,4.57
2022-08-17T03:06:51.552Z,4.28
2022-08-17T03:08:54.794Z,4.78
2022-08-17T03:10:57.823Z,4.45
2022-08-17T03:13:00.739Z,5.78
2022-08-17T03:15:10.238Z,4.80
2022-08-17T03:17:17.331Z,4.60
2022-08-17T03:19:20.128Z,4.50
2022-08-17T03:21:22.682Z,4.75
2022-08-17T03:23:27.404Z,5.10
2022-08-17T03:25:36.623Z,4.68
2022-08-17T03:27:42.062Z,4.80
2022-08-17T03:29:47.277Z,4.35
2022-08-17T03:31:50.590Z,4.32
2022-08-17T03:33:53.268Z,4.78
2022-08-17T03:35:56.611Z,4.53
2022-08-17T03:38:00.406Z,4.88
2022-08-17T03:40:06.342Z,3.78
2022-08-17T03:42:31.472Z,4.55
2022-08-17T03:44:35.838Z,4.68
2022-08-17T03:46:57.058Z,4.38
2022-08-17T03:49:18.325Z,3.90
2022-08-17T03:51:42.545Z,4.45
2022-08-17T03:54:12.884Z,4.60
2022-08-17T03:56:34.181Z,5.03
2022-08-17T03:58:39.701Z,4.55
2022-08-17T04:00:45.511Z,4.40
2022-08-17T04:02:48.337Z,4.25
2022-08-17T04:04:52.566Z,3.78
2022-08-17T04:06:55.318Z,3.92
2022-08-17T04:08:57.941Z,4.22
2022-08-17T04:11:01.673Z,4.13
2022-08-17T04:13:04.721Z,3.88
2022-08-17T04:15:07.866Z,3.50
2022-08-17T04:17:10.451Z,3.88
2022-08-17T04:19:13.139Z,3.60
2022-08-17T04:21:15.868Z,3.47
2022-08-17T04:23:19.482Z,3.80
2022-08-17T04:25:22.550Z,4.43
2022-08-17T04:27:25.307Z,3.85
2022-08-17T04:29:27.932Z,3.42
2022-08-17T04:31:50.736Z,3.67
2022-08-17T04:33:54.798Z,4.38
2022-08-17T04:36:00.644Z,4.05
2022-08-17T04:38:03.376Z,3.67
2022-08-17T04:40:27.201Z,4.70
2022-08-17T04:42:30.288Z,3.35
2022-08-17T04:44:37.608Z,3.58
2022-08-17T04:46:40.938Z,3.72
2022-08-17T04:48:46.620Z,3.70
2022-08-17T04:50:50.819Z,3.28
2022-08-17T04:52:53.503Z,3.38
2022-08-17T04:54:56.105Z,4.03
2022-08-17T04:56:58.679Z,3.63
2022-08-17T04:59:05.412Z,3.22
2022-08-17T05:01:08.694Z,4.03
2022-08-17T05:03:11.440Z,4.43
2022-08-17T05:05:20.051Z,3.35
2022-08-17T05:07:26.236Z,3.42
2022-08-17T05:09:31.175Z,3.85
2022-08-17T05:11:34.207Z,3.78
2022-08-17T05:13:36.862Z,3.72
2022-08-17T05:15:44.712Z,4.07
2022-08-17T05:17:47.857Z,3.70
2022-08-17T05:19:52.099Z,3.90
2022-08-17T05:21:54.817Z,3.50
2022-08-17T05:23:58.878Z,3.20
2022-08-17T05:26:02.301Z,3.42
2022-08-17T05:28:06.084Z,4.18
2022-08-17T05:30:09.216Z,3.40
2022-08-17T05:32:38.089Z,3.33
2022-08-17T05:34:36.844Z,3.70
2022-08-17T05:36:44.149Z,3.40
2022-08-17T05:38:47.604Z,3.15
2022-08-17T05:40:50.971Z,3.42
2022-08-17T05:43:09.303Z,3.67
2022-08-17T05:45:12.655Z,3.38
2022-08-17T05:47:16.012Z,2.97
2022-08-17T05:49:27.453Z,4.18
2022-08-17T05:51:56.466Z,3.28
2022-08-17T05:54:37.215Z,3.28
2022-08-17T05:56:49.027Z,3.83
2022-08-17T05:59:20.482Z,3.10
2022-08-17T06:04:10.991Z,3.15
2022-08-17T06:06:53.191Z,3.13
2022-08-17T06:09:34.021Z,3.08
2022-08-17T06:11:40.124Z,3.53
2022-08-17T06:13:58.664Z,3.17
2022-08-17T06:16:33.050Z,2.70
2022-08-17T06:19:04.869Z,3.13
2022-08-17T06:21:13.567Z,2.95
2022-08-17T06:23:32.846Z,3.40
2022-08-17T06:25:45.892Z,3.35
2022-08-17T06:27:54.044Z,3.17
2022-08-17T06:30:08.781Z,2.58
2022-08-17T06:32:13.034Z,2.80
2022-08-17T06:34:16.298Z,2.55
2022-08-17T06:36:33.264Z,3.50
2022-08-17T06:39:09.456Z,3.00
2022-08-17T06:41:23.142Z,3.13
2022-08-17T06:43:40.432Z,3.13
2022-08-17T06:45:49.607Z,2.80
2022-08-17T06:48:15.402Z,2.70
2022-08-17T06:50:27.312Z,2.85
2022-08-17T06:52:55.755Z,3.00
2022-08-17T06:55:07.281Z,2.72
2022-08-17T06:57:19.587Z,2.97
2022-08-17T06:59:55.684Z,2.80
2022-08-17T07:02:05.754Z,3.10
2022-08-17T07:04:31.429Z,2.83
2022-08-17T07:06:38.672Z,2.58
2022-08-17T07:09:05.774Z,3.05
2022-08-17T07:11:17.541Z,3.42
2022-08-17T07:13:51.799Z,2.22
2022-08-17T07:16:13.388Z,2.72
2022-08-17T07:18:16.201Z,3.05
2022-08-17T07:20:22.631Z,3.17
2022-08-17T07:22:58.158Z,2.85
2022-08-17T07:25:00.229Z,2.90
2022-08-17T07:27:37.312Z,3.40
2022-08-17T07:29:53.859Z,3.45
2022-08-17T07:31:56.527Z,2.55
2022-08-17T07:34:11.200Z,2.10
2022-08-17T07:36:29.982Z,3.40
2022-08-17T07:38:35.755Z,2.75
2022-08-17T07:40:39.690Z,2.90
2022-08-17T07:42:45.082Z,2.45
2022-08-17T07:44:54.124Z,3.25
2022-08-17T07:47:15.933Z,3.08
2022-08-17T07:49:33.017Z,2.90
2022-08-17T07:51:42.663Z,2.65
2022-08-17T07:53:45.688Z,2.50
2022-08-17T07:55:48.994Z,3.10
2022-08-17T07:57:57.596Z,3.30
2022-08-17T08:00:01.556Z,3.60
2022-08-17T08:02:31.863Z,2.92
2022-08-17T08:07:05.983Z,3.22
2022-08-17T08:09:08.625Z,2.20
2022-08-17T08:11:15.666Z,2.53
2022-08-17T08:13:21.264Z,3.10
2022-08-17T08:15:33.446Z,3.30
2022-08-17T08:17:47.849Z,2.35
2022-08-17T08:19:50.471Z,2.42
2022-08-17T08:22:05.763Z,2.72
2022-08-17T08:24:31.805Z,2.60
2022-08-17T08:26:46.558Z,2.85
2022-08-17T08:29:19.697Z,2.25
2022-08-17T08:31:45.165Z,2.90
2022-08-17T08:34:02.979Z,2.42
2022-08-17T08:36:13.580Z,2.83
2022-08-17T08:39:03.590Z,2.75
2022-08-17T08:41:31.004Z,2.92
2022-08-17T08:44:13.085Z,2.60
2022-08-17T08:46:46.077Z,2.60
2022-08-17T08:49:06.490Z,2.90
2022-08-17T08:51:39.020Z,2.58
2022-08-17T08:53:56.691Z,2.55
2022-08-17T08:56:34.609Z,2.60
2022-08-17T08:58:52.830Z,2.70
2022-08-17T09:00:58.711Z,2.38
2022-08-17T09:03:16.949Z,3.03
2022-08-17T09:05:39.885Z,2.83
2022-08-17T09:08:16.025Z,2.30
2022-08-17T09:10:27.362Z,2.88
2022-08-17T09:12:48.847Z,2.25
2022-08-17T09:15:03.697Z,2.38
2022-08-17T09:17:19.482Z,2.47
2022-08-17T09:19:30.630Z,2.53
2022-08-17T09:21:41.480Z,3.28
2022-08-17T09:24:05.952Z,2.40
2022-08-17T09:26:35.396Z,2.40
2022-08-17T09:28:42.794Z,2.70
2022-08-17T09:30:50.085Z,2.42
2022-08-17T09:33:07.074Z,2.75
2022-08-17T09:35:17.699Z,2.42
2022-08-17T09:37:37.930Z,2.00
2022-08-17T09:39:53.608Z,2.03
2022-08-17T09:42:01.945Z,2.50
2022-08-17T09:44:23.948Z,3.03
2022-08-17T09:46:46.031Z,2.78
2022-08-17T09:49:21.865Z,2.55
2022-08-17T09:51:37.104Z,2.38
2022-08-17T09:53:40.788Z,3.00
2022-08-17T09:55:55.962Z,2.22
2022-08-17T09:58:09.458Z,2.65
2022-08-17T10:00:27.702Z,2.00
2022-08-17T10:02:51.125Z,1.92
2022-08-17T10:05:13.894Z,2.75
2022-08-17T10:07:38.497Z,2.42
2022-08-17T10:09:59.847Z,2.75
2022-08-17T10:12:29.864Z,2.40
2022-08-17T10:14:53.518Z,1.75
2022-08-17T10:17:24.247Z,2.40
2022-08-17T10:19:32.993Z,2.53
2022-08-17T10:22:00.783Z,2.13
2022-08-17T10:25:21.739Z,2.50
2022-08-17T10:27:13.678Z,2.65
2022-08-17T10:29:23.121Z,2.60
2022-08-17T10:31:34.661Z,2.08
2022-08-17T10:34:09.637Z,3.03
2022-08-17T10:36:26.770Z,2.70
2022-08-17T10:39:16.844Z,2.60
2022-08-17T10:41:39.695Z,2.55
2022-08-17T10:44:38.414Z,2.25
2022-08-17T10:46:52.942Z,2.38
2022-08-17T10:49:18.206Z,2.42
2022-08-17T10:51:42.504Z,2.50
2022-08-17T10:53:49.583Z,2.63
2022-08-17T10:56:17.743Z,3.22
2022-08-17T10:58:24.694Z,2.20
2022-08-17T11:00:53.666Z,1.80
2022-08-17T11:02:58.289Z,2.78
2022-08-17T11:05:00.894Z,2.63
2022-08-17T11:07:21.645Z,2.60
2022-08-17T11:09:42.615Z,2.70
2022-08-17T11:14:30.891Z,2.40
2022-08-17T11:16:48.301Z,2.40
2022-08-17T11:19:21.680Z,2.80
2022-08-17T11:22:04.292Z,2.40
2022-08-17T11:24:33.254Z,2.20
2022-08-17T11:26:39.182Z,2.38
2022-08-17T11:28:52.474Z,2.38
2022-08-17T11:30:59.704Z,1.92
2022-08-17T11:33:36.712Z,2.60
2022-08-17T11:35:51.541Z,2.50
2022-08-17T11:38:16.703Z,2.40
2022-08-17T11:40:41.610Z,2.58
2022-08-17T11:43:13.725Z,3.20
2022-08-17T11:45:32.414Z,2.95
2022-08-17T11:48:27.069Z,2.60
2022-08-17T11:51:13.291Z,2.35
2022-08-17T11:53:37.534Z,2.38
2022-08-17T11:55:44.440Z,2.75
2022-08-17T11:58:00.037Z,2.95
2022-08-17T12:00:11.969Z,3.13
2022-08-17T12:02:20.509Z,2.92
2022-08-17T12:04:32.272Z,2.60
2022-08-17T12:06:44.178Z,2.63
2022-08-17T12:09:16.053Z,2.83
2022-08-17T12:12:11.161Z,3.28
2022-08-17T12:14:16.975Z,3.22
2022-08-17T12:16:22.206Z,3.08
2022-08-17T12:18:29.515Z,2.65
2022-08-17T12:20:40.198Z,2.83
2022-08-17T12:23:09.695Z,2.70
2022-08-17T12:25:20.469Z,3.20
2022-08-17T12:29:52.200Z,8.25
2022-08-17T12:31:55.420Z,2.70
2022-08-17T12:34:00.633Z,3.33
2022-08-17T12:36:07.705Z,2.78
2022-08-17T12:38:31.829Z,3.05
2022-08-17T12:40:36.393Z,2.25
2022-08-17T12:42:40.578Z,2.88
2022-08-17T12:44:49.629Z,2.80
2022-08-17T12:47:04.832Z,3.28
2022-08-17T12:49:14.534Z,2.92
2022-08-17T12:51:17.501Z,2.35
2022-08-17T12:53:30.112Z,2.63
2022-08-17T12:55:37.501Z,2.55
2022-08-17T12:57:44.319Z,2.75
2022-08-17T12:59:53.683Z,2.80
2022-08-17T13:01:56.517Z,2.58
2022-08-17T13:04:01.012Z,2.53
2022-08-17T13:06:09.884Z,2.67
2022-08-17T13:08:28.505Z,2.65
2022-08-17T13:10:34.341Z,2.13
2022-08-17T13:12:39.298Z,2.05
2022-08-17T13:14:51.085Z,2.53
2022-08-17T13:16:58.441Z,2.90
2022-08-17T13:19:15.446Z,2.72
2022-08-17T13:21:23.741Z,2.65
2022-08-17T13:23:29.508Z,3.08
2022-08-17T13:25:35.172Z,2.40
2022-08-17T13:27:42.929Z,2.80
2022-08-17T13:29:45.725Z,2.60
2022-08-17T13:32:13.776Z,2.67
2022-08-17T13:34:31.320Z,2.88
2022-08-17T13:36:36.207Z,2.38
2022-08-17T13:38:47.454Z,2.70
2022-08-17T13:40:53.417Z,2.50
2022-08-17T13:42:56.648Z,2.33
2022-08-17T13:45:00.453Z,2.35
2022-08-17T13:47:06.012Z,1.85
2022-08-17T13:49:12.225Z,2.30
2022-08-17T13:51:22.445Z,2.20
2022-08-17T13:53:36.357Z,1.77
2022-08-17T13:55:40.087Z,2.67
2022-08-17T13:57:48.316Z,2.58
2022-08-17T14:00:17.750Z,2.53
2022-08-17T14:02:21.461Z,2.05
2022-08-17T14:04:28.266Z,2.05
2022-08-17T14:07:03.978Z,2.17
2022-08-17T14:09:06.762Z,2.00
2022-08-17T14:11:09.460Z,2.20
2022-08-17T14:13:16.024Z,2.38
2022-08-17T14:15:21.833Z,2.28
2022-08-17T14:17:26.452Z,2.25
2022-08-17T14:19:29.264Z,1.67
2022-08-17T14:21:31.987Z,2.35
2022-08-17T14:23:35.493Z,2.10
2022-08-17T14:25:38.170Z,2.58
2022-08-17T14:27:41.347Z,1.98
2022-08-17T14:29:56.200Z,2.65
2022-08-17T14:32:04.517Z,2.58
2022-08-17T14:34:07.798Z,2.17
2022-08-17T14:36:10.571Z,1.98
2022-08-17T14:38:13.730Z,2.20
2022-08-17T14:40:20.576Z,2.05
2022-08-17T14:42:25.764Z,2.05
2022-08-17T14:44:28.555Z,1.75
2022-08-17T14:46:51.132Z,2.35
2022-08-17T14:48:57.183Z,3.15
2022-08-17T14:51:00.149Z,2.50
2022-08-17T14:53:04.761Z,2.40
2022-08-17T14:55:08.658Z,2.63
2022-08-17T14:57:22.790Z,2.20
2022-08-17T14:59:28.939Z,2.33
2022-08-17T15:01:31.968Z,2.50
2022-08-17T15:03:34.671Z,2.30
2022-08-17T15:05:39.533Z,1.85
2022-08-17T15:07:44.605Z,2.35
2022-08-17T15:09:47.336Z,2.70
2022-08-17T15:11:50.872Z,2.97
2022-08-17T15:13:53.466Z,2.70
2022-08-17T15:15:57.163Z,2.35
2022-08-17T15:18:00.122Z,3.40
2022-08-17T15:20:03.819Z,3.35
2022-08-17T15:22:07.157Z,2.95
2022-08-17T15:24:09.900Z,3.20
2022-08-17T15:26:12.716Z,2.63
2022-08-17T15:28:15.599Z,2.88
2022-08-17T15:30:18.631Z,4.00
2022-08-17T15:32:33.504Z,2.83
2022-08-17T15:34:36.730Z,2.90
2022-08-17T15:36:43.873Z,3.17
2022-08-17T15:38:52.536Z,3.33
2022-08-17T15:41:01.601Z,2.50
2022-08-17T15:43:11.514Z,2.83
2022-08-17T15:45:16.646Z,3.03
2022-08-17T15:47:19.214Z,3.15
2022-08-17T15:49:22.017Z,3.08
2022-08-17T15:51:28.776Z,3.20
2022-08-17T15:53:31.424Z,3.25
2022-08-17T15:55:35.369Z,3.13
2022-08-17T15:57:39.969Z,3.08
2022-08-17T15:59:43.562Z,3.50
2022-08-17T16:03:13.027Z,3.45
2022-08-17T16:04:30.428Z,3.00
2022-08-17T16:06:33.807Z,2.83
2022-08-17T16:08:37.155Z,2.92
2022-08-17T16:10:40.428Z,2.97
2022-08-17T16:12:47.924Z,3.65
2022-08-17T16:14:53.507Z,2.72
2022-08-17T16:16:56.074Z,3.03
2022-08-17T16:18:59.179Z,3.63
2022-08-17T16:21:23.538Z,3.20
2022-08-17T16:23:26.621Z,3.17
2022-08-17T16:25:52.305Z,2.35
2022-08-17T16:27:54.717Z,2.58
2022-08-17T16:29:57.413Z,2.63
2022-08-17T16:32:13.027Z,2.67
2022-08-17T16:34:18.682Z,2.90
2022-08-17T16:36:23.355Z,2.78
2022-08-17T16:38:25.946Z,3.50
2022-08-17T16:40:31.343Z,2.53
2022-08-17T16:42:40.476Z,2.55
2022-08-17T16:44:43.134Z,2.83
2022-08-17T16:46:47.107Z,2.58
2022-08-17T16:48:49.693Z,2.97
2022-08-17T16:51:03.025Z,2.38
2022-08-17T16:53:11.975Z,2.85
2022-08-17T16:55:17.131Z,2.35
2022-08-17T16:57:19.806Z,3.55
2022-08-17T16:59:38.723Z,3.35
2022-08-17T17:01:43.592Z,2.40
2022-08-17T17:03:54.125Z,2.53
2022-08-17T17:06:14.595Z,2.15
2022-08-17T17:08:23.210Z,2.35
2022-08-17T17:10:47.627Z,3.38
2022-08-17T17:13:02.090Z,2.90
2022-08-17T17:15:07.620Z,2.35
2022-08-17T17:17:25.444Z,2.38
2022-08-17T17:19:41.436Z,2.20
2022-08-17T17:22:19.204Z,3.08
2022-08-17T17:24:39.877Z,2.22
2022-08-17T17:26:50.124Z,2.50
2022-08-17T17:29:01.424Z,2.60
2022-08-17T17:31:14.146Z,2.33
2022-08-17T17:33:21.469Z,2.33
2022-08-17T17:35:31.995Z,2.20
2022-08-17T17:37:37.278Z,2.55
2022-08-17T17:39:49.205Z,2.40
2022-08-17T17:41:55.088Z,3.40
2022-08-17T17:44:12.262Z,2.70
2022-08-17T17:46:33.458Z,2.53
2022-08-17T17:48:36.861Z,2.85
2022-08-17T17:50:51.904Z,2.45
2022-08-17T17:53:07.779Z,2.92
2022-08-17T17:55:47.815Z,2.70
2022-08-17T17:57:56.074Z,2.60
2022-08-17T18:00:12.183Z,2.17
2022-08-17T18:02:55.187Z,3.00
2022-08-17T18:05:06.585Z,3.45
2022-08-17T18:07:15.497Z,3.90
2022-08-17T18:09:34.177Z,3.20
2022-08-17T18:11:45.734Z,3.90
2022-08-17T18:13:56.991Z,3.40
2022-08-17T18:16:04.202Z,3.60
2022-08-17T18:18:09.899Z,4.65
2022-08-17T18:20:14.349Z,4.05
2022-08-17T18:22:25.294Z,3.30
2022-08-17T18:24:37.800Z,2.85
2022-08-17T18:26:57.390Z,3.60
2022-08-17T18:29:31.903Z,3.20
2022-08-17T18:31:34.476Z,3.78
2022-08-17T18:33:39.601Z,3.33
2022-08-17T18:35:51.484Z,3.55
2022-08-17T18:38:20.666Z,3.45
2022-08-17T18:40:32.283Z,4.53
2022-08-17T18:42:36.516Z,3.10
2022-08-17T18:44:39.237Z,3.00
2022-08-17T18:46:42.405Z,3.63
2022-08-17T18:49:19.982Z,3.90
2022-08-17T18:51:40.525Z,4.55
2022-08-17T18:53:45.090Z,3.20
2022-08-17T18:55:47.725Z,3.70
2022-08-17T18:57:55.160Z,4.15
2022-08-17T18:59:58.840Z,3.58
2022-08-17T19:02:28.232Z,3.72
2022-08-17T19:05:02.442Z,3.35
2022-08-17T19:07:17.734Z,4.03
2022-08-17T19:09:33.352Z,3.60
2022-08-17T19:11:36.192Z,4.00
2022-08-17T19:13:52.173Z,4.22
2022-08-17T19:16:18.794Z,4.70
2022-08-17T19:18:30.022Z,3.90
2022-08-17T19:23:12.566Z,4.20
2022-08-17T19:25:27.123Z,3.97
2022-08-17T19:27:46.306Z,4.00
2022-08-17T19:29:55.101Z,2.97
2022-08-17T19:31:58.882Z,3.45
2022-08-17T19:34:02.626Z,7.15
2022-08-17T19:36:18.822Z,5.20
2022-08-17T19:38:39.117Z,3.30
2022-08-17T19:41:03.199Z,3.47
2022-08-17T19:43:20.937Z,3.53
2022-08-17T19:45:58.510Z,3.92
2022-08-17T19:48:09.373Z,4.20
2022-08-17T19:50:25.947Z,4.25
2022-08-17T19:52:47.050Z,3.95
2022-08-17T19:55:05.128Z,3.67
2022-08-17T19:57:16.650Z,3.75
2022-08-17T19:59:49.106Z,3.75
2022-08-17T20:02:01.191Z,4.00
2022-08-17T20:04:14.558Z,4.00
2022-08-17T20:06:19.457Z,3.60
2022-08-17T20:08:33.555Z,3.05
2022-08-17T20:10:55.016Z,3.35
2022-08-17T20:13:04.484Z,3.72
2022-08-17T20:15:10.252Z,4.57
2022-08-17T20:17:13.036Z,4.15
2022-08-17T20:19:45.200Z,3.40
2022-08-17T20:22:04.885Z,4.10
2022-08-17T20:24:30.364Z,4.78
2022-08-17T20:26:58.121Z,4.25
2022-08-17T20:29:10.369Z,3.53
2022-08-17T20:31:46.878Z,3.90
2022-08-17T20:33:49.538Z,3.85
2022-08-17T20:36:16.151Z,4.32
2022-08-17T20:38:41.762Z,4.30
2022-08-17T20:40:57.510Z,4.30
2022-08-17T20:43:35.480Z,4.15
2022-08-17T20:46:10.498Z,4.13
2022-08-17T20:48:36.747Z,3.83
2022-08-17T20:50:45.471Z,3.78
2022-08-17T20:52:51.035Z,3.70
2022-08-17T20:54:57.409Z,3.30
2022-08-17T20:57:01.183Z,3.17
2022-08-17T20:59:04.096Z,3.95
2022-08-17T21:01:24.468Z,2.85
2022-08-17T21:03:47.570Z,4.05
2022-08-17T21:06:17.306Z,4.03
2022-08-17T21:08:30.751Z,3.47
2022-08-17T21:10:36.500Z,2.95
2022-08-17T21:12:48.134Z,3.13
2022-08-17T21:15:28.682Z,3.03
2022-08-17T21:17:43.727Z,3.28
2022-08-17T21:20:13.069Z,3.30
2022-08-17T21:22:46.560Z,3.67
2022-08-17T21:25:08.588Z,2.75
2022-08-17T21:27:26.125Z,3.20
2022-08-17T21:29:34.172Z,3.50
2022-08-17T21:31:47.982Z,3.40
2022-08-17T21:34:17.102Z,3.15
2022-08-17T21:36:26.620Z,3.22
2022-08-17T21:38:37.204Z,3.03
2022-08-17T21:40:44.993Z,3.47
2022-08-17T21:42:57.811Z,3.38
2022-08-17T21:45:25.398Z,3.28
2022-08-17T21:47:30.399Z,3.15
2022-08-17T21:49:37.825Z,3.30
2022-08-17T21:51:45.631Z,3.67
2022-08-17T21:53:52.124Z,2.40
2022-08-17T21:55:54.831Z,3.22
2022-08-17T21:58:13.884Z,3.00
2022-08-17T22:00:26.132Z,3.10
2022-08-17T22:02:35.638Z,2.90
2022-08-17T22:04:41.556Z,3.13
2022-08-17T22:06:57.441Z,3.47
2022-08-17T22:09:47.049Z,3.25
2022-08-17T22:12:02.032Z,3.30
2022-08-17T22:14:17.433Z,3.28
2022-08-17T22:16:29.306Z,3.13
2022-08-17T22:18:32.569Z,3.50
2022-08-17T22:20:35.411Z,2.30
2022-08-17T22:23:05.343Z,3.33
2022-08-17T22:25:19.967Z,2.50
2022-08-17T22:27:23.331Z,2.97
2022-08-17T22:29:58.355Z,3.10
2022-08-17T22:32:01.095Z,2.90
2022-08-17T22:34:03.664Z,2.65
2022-08-17T22:36:12.520Z,3.17
2022-08-17T22:38:21.281Z,3.30
2022-08-17T22:40:30.615Z,3.13
2022-08-17T22:42:44.038Z,2.63
2022-08-17T22:44:50.574Z,2.92
2022-08-17T22:46:58.919Z,2.85
2022-08-17T22:49:01.565Z,2.70
2022-08-17T22:51:13.383Z,3.03
2022-08-17T22:53:39.323Z,2.90
2022-08-17T22:56:09.575Z,2.72
2022-08-17T22:58:34.950Z,1.88
2022-08-17T23:00:44.933Z,2.42
2022-08-17T23:03:10.677Z,2.90
2022-08-17T23:05:13.370Z,2.22
2022-08-17T23:07:17.583Z,2.38
2022-08-17T23:09:20.143Z,2.08
2022-08-17T23:11:42.921Z,2.22
2022-08-17T23:13:56.669Z,2.33
2022-08-17T23:15:59.617Z,2.28
2022-08-17T23:18:05.318Z,2.20
2022-08-17T23:20:12.306Z,2.15
2022-08-17T23:22:14.855Z,2.10
2022-08-17T23:24:25.483Z,2.78
2022-08-17T23:26:29.746Z,3.13
2022-08-17T23:28:34.474Z,2.17
2022-08-17T23:30:43.937Z,3.08
2022-08-17T23:32:53.179Z,2.88
2022-08-17T23:34:59.400Z,2.42
2022-08-17T23:37:02.424Z,2.47
2022-08-17T23:39:06.617Z,2.58
2022-08-17T23:41:13.434Z,2.60
2022-08-17T23:43:23.709Z,2.55
2022-08-17T23:45:27.713Z,2.83
2022-08-17T23:47:30.310Z,2.67
2022-08-17T23:49:32.928Z,2.90
2022-08-17T23:51:42.755Z,3.50
2022-08-17T23:53:53.092Z,2.03
2022-08-17T23:56:09.137Z,3.10
2022-08-17T23:58:13.146Z,3.10
